createdAt,value
2023-03-20T00:00:08.447Z, 47.12
2023-03-20T00:01:08.436Z, 47.07
2023-03-20T00:02:08.447Z, 47.04
2023-03-20T00:03:08.474Z, 47.02
2023-03-20T00:04:08.547Z, 47.01
2023-03-20T00:05:08.622Z, 46.98
2023-03-20T00:06:08.508Z, 46.99
2023-03-20T00:07:08.535Z, 46.97
2023-03-20T00:08:08.531Z, 46.96
2023-03-20T00:09:08.539Z, 46.97
2023-03-20T00:10:08.532Z, 46.92
2023-03-20T00:11:08.545Z, 46.95
2023-03-20T00:12:08.588Z, 46.94
2023-03-20T00:13:08.571Z, 46.91
2023-03-20T00:14:08.653Z, 46.82
2023-03-20T00:15:08.633Z, 46.80
2023-03-20T00:16:08.739Z, 46.77
2023-03-20T00:17:08.657Z, 46.73
2023-03-20T00:18:08.703Z, 46.80
2023-03-20T00:19:08.687Z, 46.76
2023-03-20T00:20:08.681Z, 46.74
2023-03-20T00:21:08.686Z, 46.74
2023-03-20T00:22:08.694Z, 46.68
2023-03-20T00:23:08.768Z, 46.56
2023-03-20T00:24:08.722Z, 46.49
2023-03-20T00:25:08.740Z, 46.46
2023-03-20T00:26:08.763Z, 46.41
2023-03-20T00:27:08.813Z, 46.39
2023-03-20T00:28:08.795Z, 46.37
2023-03-20T00:29:08.852Z, 46.41
2023-03-20T00:30:08.830Z, 46.30
2023-03-20T00:31:08.908Z, 46.33
2023-03-20T00:32:08.832Z, 46.30
2023-03-20T00:33:08.961Z, 46.26
2023-03-20T00:34:08.846Z, 46.25
2023-03-20T00:35:08.916Z, 46.30
2023-03-20T00:36:08.961Z, 46.19
2023-03-20T00:37:08.893Z, 46.22
2023-03-20T00:38:08.901Z, 46.18
2023-03-20T00:39:08.902Z, 46.16
2023-03-20T00:40:08.918Z, 46.09
2023-03-20T00:41:08.934Z, 46.07
2023-03-20T00:42:08.991Z, 46.03
2023-03-20T00:43:08.984Z, 46.03
2023-03-20T00:44:09.053Z, 46.01
2023-03-20T00:45:09.028Z, 46.00
2023-03-20T00:46:09.037Z, 45.97
2023-03-20T00:47:09.084Z, 45.95
2023-03-20T00:48:09.040Z, 45.92
2023-03-20T00:49:09.050Z, 45.90
2023-03-20T00:50:09.054Z, 45.91
2023-03-20T00:51:09.063Z, 45.90
2023-03-20T00:52:09.179Z, 45.88
2023-03-20T00:53:09.116Z, 45.89
2023-03-20T00:54:09.110Z, 45.86
2023-03-20T00:55:09.146Z, 45.76
2023-03-20T00:56:09.113Z, 45.69
2023-03-20T00:57:09.196Z, 45.78
2023-03-20T00:58:09.178Z, 45.71
2023-03-20T00:59:09.212Z, 45.66
2023-03-20T01:00:09.192Z, 45.75
2023-03-20T01:01:09.232Z, 45.72
2023-03-20T01:02:09.297Z, 45.61
2023-03-20T01:03:09.232Z, 45.55
2023-03-20T01:04:09.241Z, 45.52
2023-03-20T01:05:09.262Z, 45.55
2023-03-20T01:06:09.336Z, 45.49
2023-03-20T01:07:09.305Z, 45.50
2023-03-20T01:08:09.346Z, 45.49
2023-03-20T01:09:09.317Z, 45.50
2023-03-20T01:10:09.337Z, 45.44
2023-03-20T01:11:09.325Z, 45.37
2023-03-20T01:12:09.328Z, 45.37
2023-03-20T01:13:09.330Z, 45.31
2023-03-20T01:14:09.344Z, 45.31
2023-03-20T01:15:09.421Z, 45.20
2023-03-20T01:16:09.461Z, 45.19
2023-03-20T01:17:10.920Z, 45.20
2023-03-20T01:18:09.412Z, 45.17
2023-03-20T01:19:09.402Z, 45.20
2023-03-20T01:20:09.413Z, 45.11
2023-03-20T01:21:09.421Z, 45.11
2023-03-20T01:22:09.422Z, 45.14
2023-03-20T01:23:09.444Z, 45.08
2023-03-20T01:24:09.546Z, 45.04
2023-03-20T01:25:09.502Z, 45.04
2023-03-20T01:26:09.564Z, 45.02
2023-03-20T01:27:09.523Z, 45.01
2023-03-20T01:28:09.575Z, 44.93
2023-03-20T01:29:09.562Z, 44.90
2023-03-20T01:30:09.573Z, 44.89
2023-03-20T01:31:09.579Z, 44.87
2023-03-20T01:32:09.642Z, 44.82
2023-03-20T01:33:09.604Z, 44.83
2023-03-20T01:34:09.592Z, 44.87
2023-03-20T01:35:09.671Z, 44.84
2023-03-20T01:36:09.663Z, 44.79
2023-03-20T01:37:09.708Z, 44.75
2023-03-20T01:38:09.682Z, 44.71
2023-03-20T01:39:09.697Z, 44.67
2023-03-20T01:40:09.683Z, 44.65
2023-03-20T01:41:09.686Z, 44.68
2023-03-20T01:42:09.691Z, 44.63
2023-03-20T01:43:09.704Z, 44.62
2023-03-20T01:44:09.721Z, 44.64
2023-03-20T01:45:09.711Z, 44.61
2023-03-20T01:46:09.844Z, 44.63
2023-03-20T01:47:09.764Z, 44.53
2023-03-20T01:48:09.822Z, 44.50
2023-03-20T01:49:09.793Z, 44.46
2023-03-20T01:50:09.860Z, 44.46
2023-03-20T01:51:09.836Z, 44.37
2023-03-20T01:52:09.885Z, 44.42
2023-03-20T01:53:09.853Z, 44.37
2023-03-20T01:54:09.869Z, 44.36
2023-03-20T01:55:09.860Z, 44.38
2023-03-20T01:56:09.869Z, 44.35
2023-03-20T01:57:09.876Z, 44.28
2023-03-20T01:58:09.917Z, 44.27
2023-03-20T01:59:09.994Z, 44.17
2023-03-20T02:00:09.964Z, 44.21
2023-03-20T02:01:10.059Z, 44.27
2023-03-20T02:02:09.982Z, 44.21
2023-03-20T02:03:09.978Z, 44.24
2023-03-20T02:04:09.981Z, 44.27
2023-03-20T02:05:10.114Z, 44.27
2023-03-20T02:06:09.997Z, 44.23
2023-03-20T02:07:10.041Z, 44.25
2023-03-20T02:08:10.030Z, 44.20
2023-03-20T02:09:10.026Z, 44.17
2023-03-20T02:10:10.041Z, 44.13
2023-03-20T02:11:10.044Z, 44.08
2023-03-20T02:12:10.113Z, 44.01
2023-03-20T02:13:10.083Z, 43.97
2023-03-20T02:14:10.090Z, 43.95
2023-03-20T02:15:10.091Z, 43.92
2023-03-20T02:16:10.102Z, 43.90
2023-03-20T02:17:10.133Z, 43.88
2023-03-20T02:18:10.200Z, 43.83
2023-03-20T02:19:10.179Z, 43.84
2023-03-20T02:20:10.225Z, 43.77
2023-03-20T02:21:10.193Z, 43.72
2023-03-20T02:22:10.253Z, 43.77
2023-03-20T02:23:10.239Z, 43.77
2023-03-20T02:24:10.227Z, 43.74
2023-03-20T02:25:10.237Z, 43.73
2023-03-20T02:26:10.247Z, 43.69
2023-03-20T02:27:10.259Z, 43.67
2023-03-20T02:28:10.265Z, 43.73
2023-03-20T02:29:10.295Z, 43.67
2023-03-20T02:30:10.299Z, 43.60
2023-03-20T02:31:10.416Z, 43.65
2023-03-20T02:32:10.339Z, 43.57
2023-03-20T02:33:10.370Z, 43.60
2023-03-20T02:34:10.347Z, 43.58
2023-03-20T02:35:10.346Z, 43.54
2023-03-20T02:36:10.464Z, 43.50
2023-03-20T02:37:10.396Z, 43.44
2023-03-20T02:38:10.412Z, 43.45
2023-03-20T02:39:10.393Z, 43.40
2023-03-20T02:40:10.453Z, 43.51
2023-03-20T02:41:10.564Z, 43.38
2023-03-20T02:42:10.466Z, 43.41
2023-03-20T02:43:10.447Z, 43.38
2023-03-20T02:44:10.479Z, 43.38
2023-03-20T02:45:10.494Z, 43.37
2023-03-20T02:46:10.534Z, 43.36
2023-03-20T02:47:10.564Z, 43.34
2023-03-20T02:48:10.542Z, 43.36
2023-03-20T02:49:10.596Z, 43.29
2023-03-20T02:50:10.570Z, 43.24
2023-03-20T02:51:10.625Z, 43.22
2023-03-20T02:52:10.609Z, 43.21
2023-03-20T02:53:10.650Z, 43.20
2023-03-20T02:54:10.631Z, 43.21
2023-03-20T02:55:10.637Z, 43.09
2023-03-20T02:56:10.633Z, 43.17
2023-03-20T02:57:10.634Z, 43.16
2023-03-20T02:58:10.659Z, 43.13
2023-03-20T02:59:10.679Z, 43.10
2023-03-20T03:00:10.736Z, 43.11
2023-03-20T03:01:10.752Z, 42.99
2023-03-20T03:02:10.752Z, 42.92
2023-03-20T03:03:10.711Z, 42.91
2023-03-20T03:04:10.768Z, 42.94
2023-03-20T03:05:10.754Z, 42.96
2023-03-20T03:06:10.761Z, 42.94
2023-03-20T03:07:10.791Z, 42.90
2023-03-20T03:08:10.797Z, 42.89
2023-03-20T03:09:10.785Z, 42.95
2023-03-20T03:10:10.791Z, 42.90
2023-03-20T03:11:10.864Z, 42.86
2023-03-20T03:12:10.860Z, 42.82
2023-03-20T03:13:10.903Z, 42.82
2023-03-20T03:14:10.870Z, 42.76
2023-03-20T03:15:10.904Z, 42.75
2023-03-20T03:16:10.930Z, 42.72
2023-03-20T03:17:10.885Z, 42.78
2023-03-20T03:18:10.969Z, 42.74
2023-03-20T03:19:10.951Z, 42.68
2023-03-20T03:20:10.956Z, 42.67
2023-03-20T03:21:10.941Z, 42.65
2023-03-20T03:22:10.999Z, 42.57
2023-03-20T03:23:10.968Z, 42.51
2023-03-20T03:24:11.004Z, 42.55
2023-03-20T03:25:10.990Z, 42.60
2023-03-20T03:26:10.987Z, 42.52
2023-03-20T03:27:11.004Z, 42.48
2023-03-20T03:28:11.021Z, 42.44
2023-03-20T03:29:11.026Z, 42.47
2023-03-20T03:30:11.032Z, 42.43
2023-03-20T03:31:11.119Z, 42.43
2023-03-20T03:32:11.086Z, 42.47
2023-03-20T03:33:11.260Z, 42.45
2023-03-20T03:34:11.157Z, 42.39
2023-03-20T03:35:11.132Z, 42.39
2023-03-20T03:36:11.177Z, 42.39
2023-03-20T03:37:11.135Z, 42.41
2023-03-20T03:38:11.138Z, 42.40
2023-03-20T03:39:11.161Z, 42.37
2023-03-20T03:40:11.168Z, 42.36
2023-03-20T03:41:11.174Z, 42.34
2023-03-20T03:42:11.165Z, 42.33
2023-03-20T03:43:11.223Z, 42.32
2023-03-20T03:44:11.235Z, 42.27
2023-03-20T03:45:11.226Z, 42.30
2023-03-20T03:46:11.285Z, 42.26
2023-03-20T03:47:11.242Z, 42.18
2023-03-20T03:48:11.243Z, 42.22
2023-03-20T03:49:11.320Z, 42.18
2023-03-20T03:50:11.300Z, 42.12
2023-03-20T03:51:11.343Z, 42.11
2023-03-20T03:52:11.332Z, 42.14
2023-03-20T03:53:11.356Z, 42.16
2023-03-20T03:54:11.325Z, 42.09
2023-03-20T03:55:11.380Z, 42.15
2023-03-20T03:56:11.377Z, 42.11
2023-03-20T03:57:11.359Z, 42.04
2023-03-20T03:58:11.362Z, 42.07
2023-03-20T03:59:11.370Z, 42.00
2023-03-20T04:00:11.459Z, 41.95
2023-03-20T04:01:11.435Z, 41.92
2023-03-20T04:02:11.553Z, 41.90
2023-03-20T04:03:11.476Z, 41.90
2023-03-20T04:04:11.589Z, 41.84
2023-03-20T04:05:11.490Z, 41.88
2023-03-20T04:06:11.498Z, 41.90
2023-03-20T04:07:11.514Z, 41.85
2023-03-20T04:08:11.526Z, 41.84
2023-03-20T04:09:11.580Z, 41.77
2023-03-20T04:10:11.559Z, 41.79
2023-03-20T04:11:11.611Z, 41.81
2023-03-20T04:12:11.593Z, 41.76
2023-03-20T04:13:11.599Z, 41.80
2023-03-20T04:14:11.607Z, 41.74
2023-03-20T04:15:11.687Z, 41.71
2023-03-20T04:16:11.675Z, 41.72
2023-03-20T04:17:11.659Z, 41.70
2023-03-20T04:18:11.652Z, 41.67
2023-03-20T04:19:11.684Z, 41.66
2023-03-20T04:20:11.659Z, 41.62
2023-03-20T04:21:11.655Z, 41.65
2023-03-20T04:22:11.663Z, 41.59
2023-03-20T04:23:11.696Z, 41.61
2023-03-20T04:24:11.780Z, 41.55
2023-03-20T04:25:11.743Z, 41.64
2023-03-20T04:26:11.810Z, 41.64
2023-03-20T04:27:11.771Z, 41.55
2023-03-20T04:28:11.851Z, 41.50
2023-03-20T04:29:11.814Z, 41.45
2023-03-20T04:30:11.874Z, 41.47
2023-03-20T04:31:11.883Z, 41.60
2023-03-20T04:32:11.894Z, 43.10
2023-03-20T04:33:11.942Z, 43.85
2023-03-20T04:34:11.879Z, 43.95
2023-03-20T04:35:11.877Z, 43.89
2023-03-20T04:36:11.943Z, 43.78
2023-03-20T04:37:11.882Z, 43.72
2023-03-20T04:38:11.972Z, 43.72
2023-03-20T04:39:11.976Z, 43.75
2023-03-20T04:40:11.946Z, 43.77
2023-03-20T04:41:11.945Z, 43.78
2023-03-20T04:42:11.943Z, 43.76
2023-03-20T04:43:12.019Z, 43.79
2023-03-20T04:44:11.986Z, 43.75
2023-03-20T04:45:12.014Z, 43.67
2023-03-20T04:46:12.023Z, 43.60
2023-03-20T04:47:12.027Z, 43.58
2023-03-20T04:48:12.034Z, 43.53
2023-03-20T04:49:12.028Z, 43.44
2023-03-20T04:50:12.111Z, 43.39
2023-03-20T04:51:12.087Z, 43.33
2023-03-20T04:52:12.084Z, 43.32
2023-03-20T04:53:12.098Z, 43.23
2023-03-20T04:54:12.111Z, 43.21
2023-03-20T04:55:12.121Z, 43.17
2023-03-20T04:56:12.129Z, 43.11
2023-03-20T04:57:12.223Z, 43.03
2023-03-20T04:58:12.188Z, 43.02
2023-03-20T04:59:12.191Z, 42.96
2023-03-20T05:00:12.189Z, 42.91
2023-03-20T05:01:12.247Z, 42.89
2023-03-20T05:02:12.203Z, 42.79
2023-03-20T05:03:12.214Z, 42.75
2023-03-20T05:04:12.355Z, 42.70
2023-03-20T05:05:12.282Z, 42.64
2023-03-20T05:06:12.322Z, 42.60
2023-03-20T05:07:12.296Z, 42.55
2023-03-20T05:08:12.282Z, 42.52
2023-03-20T05:09:12.295Z, 42.47
2023-03-20T05:10:12.289Z, 42.42
2023-03-20T05:11:12.298Z, 42.38
2023-03-20T05:12:12.333Z, 42.37
2023-03-20T05:13:12.362Z, 42.31
2023-03-20T05:14:12.345Z, 42.29
2023-03-20T05:15:12.358Z, 42.28
2023-03-20T05:16:12.437Z, 42.22
2023-03-20T05:17:12.410Z, 42.19
2023-03-20T05:18:12.421Z, 42.21
2023-03-20T05:19:12.414Z, 42.20
2023-03-20T05:20:12.415Z, 42.14
2023-03-20T05:21:12.435Z, 42.12
2023-03-20T05:22:12.455Z, 42.12
2023-03-20T05:23:12.453Z, 42.07
2023-03-20T05:24:12.465Z, 42.04
2023-03-20T05:25:12.543Z, 42.03
2023-03-20T05:26:12.518Z, 42.00
2023-03-20T05:27:12.590Z, 41.96
2023-03-20T05:28:12.550Z, 41.94
2023-03-20T05:29:12.546Z, 41.96
2023-03-20T05:30:12.561Z, 41.93
2023-03-20T05:31:12.655Z, 41.91
2023-03-20T05:32:12.644Z, 41.88
2023-03-20T05:33:12.665Z, 41.85
2023-03-20T05:34:12.635Z, 41.82
2023-03-20T05:35:12.608Z, 41.78
2023-03-20T05:36:12.619Z, 41.75
2023-03-20T05:37:12.667Z, 41.73
2023-03-20T05:38:12.680Z, 41.71
2023-03-20T05:39:12.696Z, 41.68
2023-03-20T05:40:12.665Z, 41.64
2023-03-20T05:41:12.663Z, 41.64
2023-03-20T05:42:12.669Z, 41.63
2023-03-20T05:43:12.684Z, 41.61
2023-03-20T05:44:12.774Z, 41.58
2023-03-20T05:45:12.736Z, 41.57
2023-03-20T05:46:12.792Z, 41.56
2023-03-20T05:47:12.786Z, 41.54
2023-03-20T05:48:12.758Z, 41.50
2023-03-20T05:49:12.773Z, 41.51
2023-03-20T05:50:12.797Z, 41.51
2023-03-20T05:51:12.797Z, 41.46
2023-03-20T05:52:12.820Z, 41.42
2023-03-20T05:53:12.814Z, 41.40
2023-03-20T05:54:12.837Z, 41.42
2023-03-20T05:55:12.929Z, 41.37
2023-03-20T05:56:12.882Z, 41.33
2023-03-20T05:57:12.884Z, 41.30
2023-03-20T05:58:12.918Z, 41.29
2023-03-20T05:59:12.883Z, 41.29
2023-03-20T06:00:12.885Z, 41.24
2023-03-20T06:01:12.896Z, 41.22
2023-03-20T06:02:13.053Z, 41.19
2023-03-20T06:03:13.006Z, 41.20
2023-03-20T06:04:13.006Z, 41.21
2023-03-20T06:05:12.995Z, 41.16
2023-03-20T06:06:13.046Z, 41.14
2023-03-20T06:07:13.006Z, 41.11
2023-03-20T06:08:13.058Z, 41.08
2023-03-20T06:09:13.049Z, 41.07
2023-03-20T06:10:13.061Z, 41.03
2023-03-20T06:11:13.040Z, 41.04
2023-03-20T06:12:13.060Z, 40.99
2023-03-20T06:13:13.140Z, 41.00
2023-03-20T06:14:13.101Z, 41.01
2023-03-20T06:15:13.166Z, 41.01
2023-03-20T06:16:13.237Z, 40.91
2023-03-20T06:17:13.183Z, 40.67
2023-03-20T06:18:13.148Z, 40.42
2023-03-20T06:19:13.223Z, 40.13
2023-03-20T06:20:13.169Z, 39.91
2023-03-20T06:21:13.174Z, 39.82
2023-03-20T06:22:13.225Z, 39.71
2023-03-20T06:23:13.186Z, 39.64
2023-03-20T06:24:13.235Z, 39.58
2023-03-20T06:25:13.209Z, 39.52
2023-03-20T06:26:13.228Z, 39.49
2023-03-20T06:27:13.236Z, 39.40
2023-03-20T06:28:13.325Z, 39.36
2023-03-20T06:29:13.279Z, 39.30
2023-03-20T06:30:13.273Z, 39.23
2023-03-20T06:31:13.337Z, 39.20
2023-03-20T06:32:13.293Z, 39.15
2023-03-20T06:33:13.345Z, 39.14
2023-03-20T06:34:13.332Z, 39.06
2023-03-20T06:35:13.344Z, 39.02
2023-03-20T06:36:13.373Z, 38.96
2023-03-20T06:37:13.356Z, 38.97
2023-03-20T06:38:13.393Z, 38.91
2023-03-20T06:39:13.402Z, 38.90
2023-03-20T06:40:13.405Z, 38.88
2023-03-20T06:41:18.924Z, 38.86
2023-03-20T06:42:16.047Z, 38.84
2023-03-20T06:43:13.538Z, 38.80
2023-03-20T06:44:13.492Z, 38.79
2023-03-20T06:45:13.513Z, 38.79
2023-03-20T06:46:13.576Z, 38.76
2023-03-20T06:47:13.500Z, 38.68
2023-03-20T06:48:13.501Z, 38.68
2023-03-20T06:49:13.522Z, 38.66
2023-03-20T06:50:13.499Z, 38.64
2023-03-20T06:51:13.536Z, 38.63
2023-03-20T06:52:13.528Z, 38.63
2023-03-20T06:53:13.534Z, 38.63
2023-03-20T06:54:13.546Z, 38.61
2023-03-20T06:55:13.563Z, 38.54
2023-03-20T06:56:13.662Z, 38.60
2023-03-20T06:57:15.258Z, 38.58
2023-03-20T06:58:13.674Z, 38.52
2023-03-20T06:59:13.643Z, 38.49
2023-03-20T07:00:13.654Z, 38.45
2023-03-20T07:01:13.657Z, 38.47
2023-03-20T07:02:13.838Z, 38.52
2023-03-20T07:03:13.684Z, 38.49
2023-03-20T07:04:13.678Z, 38.46
2023-03-20T07:05:13.792Z, 38.43
2023-03-20T07:06:13.710Z, 38.41
2023-03-20T07:07:13.788Z, 38.37
2023-03-20T07:08:13.766Z, 38.29
2023-03-20T07:09:13.808Z, 38.31
2023-03-20T07:10:13.814Z, 38.31
2023-03-20T07:11:13.844Z, 38.30
2023-03-20T07:12:13.807Z, 38.37
2023-03-20T07:13:13.806Z, 38.34
2023-03-20T07:14:13.826Z, 38.34
2023-03-20T07:15:13.805Z, 38.30
2023-03-20T07:16:13.879Z, 38.23
2023-03-20T07:17:13.846Z, 38.20
2023-03-20T07:18:13.897Z, 38.19
2023-03-20T07:19:13.887Z, 38.21
2023-03-20T07:20:13.888Z, 38.24
2023-03-20T07:21:13.890Z, 38.21
2023-03-20T07:22:13.893Z, 38.17
2023-03-20T07:23:13.904Z, 38.12
2023-03-20T07:24:13.949Z, 38.17
2023-03-20T07:25:13.962Z, 38.17
2023-03-20T07:26:13.982Z, 38.19
2023-03-20T07:27:14.043Z, 38.11
2023-03-20T07:28:14.032Z, 38.16
2023-03-20T07:29:14.098Z, 38.12
2023-03-20T07:30:14.037Z, 38.14
2023-03-20T07:31:14.121Z, 38.11
2023-03-20T07:32:14.085Z, 38.04
2023-03-20T07:33:14.139Z, 38.04
2023-03-20T07:34:14.093Z, 38.02
2023-03-20T07:35:14.083Z, 38.07
2023-03-20T07:36:14.086Z, 38.08
2023-03-20T07:37:14.109Z, 38.04
2023-03-20T07:38:14.103Z, 37.97
2023-03-20T07:39:14.116Z, 37.95
2023-03-20T07:40:14.119Z, 37.93
2023-03-20T07:41:14.130Z, 37.95
2023-03-20T07:42:14.198Z, 37.96
2023-03-20T07:43:14.183Z, 37.98
2023-03-20T07:44:14.204Z, 37.94
2023-03-20T07:45:14.214Z, 37.96
2023-03-20T07:46:14.272Z, 37.95
2023-03-20T07:47:14.219Z, 37.94
2023-03-20T07:48:14.249Z, 37.89
2023-03-20T07:49:14.315Z, 37.90
2023-03-20T07:50:14.298Z, 37.94
2023-03-20T07:51:14.331Z, 37.94
2023-03-20T07:52:14.307Z, 37.98
2023-03-20T07:53:14.303Z, 37.95
2023-03-20T07:54:14.366Z, 37.90
2023-03-20T07:55:16.180Z, 37.86
2023-03-20T07:56:14.397Z, 37.82
2023-03-20T07:57:14.368Z, 37.88
2023-03-20T07:58:14.445Z, 37.84
2023-03-20T07:59:14.411Z, 37.81
2023-03-20T08:00:14.432Z, 37.78
2023-03-20T08:01:14.417Z, 37.74
2023-03-20T08:02:14.466Z, 37.69
2023-03-20T08:03:14.591Z, 37.70
2023-03-20T08:04:14.519Z, 37.71
2023-03-20T08:05:14.458Z, 37.74
2023-03-20T08:06:14.459Z, 37.74
2023-03-20T08:07:14.445Z, 37.74
2023-03-20T08:08:14.459Z, 37.70
2023-03-20T08:09:14.538Z, 37.66
2023-03-20T08:10:14.520Z, 37.67
2023-03-20T08:11:14.570Z, 37.67
2023-03-20T08:12:14.572Z, 37.70
2023-03-20T08:13:14.544Z, 37.68
2023-03-20T08:14:14.603Z, 37.67
2023-03-20T08:15:14.586Z, 37.64
2023-03-20T08:16:14.713Z, 37.61
2023-03-20T08:17:16.635Z, 37.59
2023-03-20T08:18:14.643Z, 37.60
2023-03-20T08:19:14.651Z, 37.57
2023-03-20T08:20:14.650Z, 37.57
2023-03-20T08:21:14.822Z, 37.56
2023-03-20T08:22:14.788Z, 37.54
2023-03-20T08:23:14.802Z, 37.52
2023-03-20T08:24:14.807Z, 37.49
2023-03-20T08:25:14.927Z, 37.49
2023-03-20T08:26:14.807Z, 37.48
2023-03-20T08:27:14.806Z, 37.52
2023-03-20T08:28:14.917Z, 37.54
2023-03-20T08:29:14.915Z, 37.51
2023-03-20T08:30:14.921Z, 37.51
2023-03-20T08:31:15.007Z, 37.54
2023-03-20T08:32:14.956Z, 37.53
2023-03-20T08:33:15.020Z, 37.49
2023-03-20T08:34:14.946Z, 37.48
2023-03-20T08:35:31.788Z, 37.48
2023-03-20T08:36:14.952Z, 37.49
2023-03-20T08:37:14.956Z, 37.43
2023-03-20T08:38:14.969Z, 37.43
2023-03-20T08:39:15.060Z, 37.46
2023-03-20T08:40:15.067Z, 37.41
2023-03-20T08:41:15.067Z, 37.41
2023-03-20T08:42:15.072Z, 37.43
2023-03-20T08:43:15.067Z, 37.45
2023-03-20T08:44:15.070Z, 37.41
2023-03-20T08:45:15.202Z, 37.40
2023-03-20T08:46:15.241Z, 37.36
2023-03-20T08:47:15.089Z, 37.34
2023-03-20T08:48:15.096Z, 37.30
2023-03-20T08:49:15.218Z, 37.30
2023-03-20T08:50:15.101Z, 37.28
2023-03-20T08:51:15.221Z, 37.30
2023-03-20T08:52:15.212Z, 37.28
2023-03-20T08:53:15.212Z, 37.21
2023-03-20T08:54:15.206Z, 37.25
2023-03-20T08:55:15.218Z, 37.27
2023-03-20T08:56:15.219Z, 37.30
2023-03-20T08:57:15.217Z, 37.26
2023-03-20T08:58:15.214Z, 37.23
2023-03-20T08:59:15.216Z, 37.25
2023-03-20T09:00:15.219Z, 37.22
2023-03-20T09:01:15.486Z, 37.23
2023-03-20T09:02:15.361Z, 37.21
2023-03-20T09:03:15.477Z, 37.16
2023-03-20T09:04:15.355Z, 37.10
2023-03-20T09:05:15.351Z, 37.08
2023-03-20T09:06:15.357Z, 37.11
2023-03-20T09:07:15.356Z, 37.13
2023-03-20T09:08:15.396Z, 37.15
2023-03-20T09:09:15.367Z, 37.12
2023-03-20T09:10:15.372Z, 37.07
2023-03-20T09:11:15.358Z, 37.12
2023-03-20T09:12:15.381Z, 37.09
2023-03-20T09:13:26.628Z, 37.05
2023-03-20T09:14:15.396Z, 37.05
2023-03-20T09:15:15.506Z, 37.03
2023-03-20T09:16:15.522Z, 36.98
2023-03-20T09:17:15.492Z, 37.00
2023-03-20T09:18:15.505Z, 36.99
2023-03-20T09:19:15.543Z, 36.93
2023-03-20T09:20:15.504Z, 36.93
2023-03-20T09:21:15.503Z, 36.95
2023-03-20T09:22:15.510Z, 36.96
2023-03-20T09:23:15.508Z, 36.93
2023-03-20T09:24:15.511Z, 36.93
2023-03-20T09:25:15.525Z, 36.93
2023-03-20T09:26:15.536Z, 36.91
2023-03-20T09:27:15.529Z, 36.89
2023-03-20T09:28:15.639Z, 36.85
2023-03-20T09:29:15.664Z, 36.81
2023-03-20T09:30:15.637Z, 36.79
2023-03-20T09:31:15.719Z, 36.82
2023-03-20T09:32:15.658Z, 36.71
2023-03-20T09:33:15.802Z, 37.77
2023-03-20T09:34:15.643Z, 42.72
2023-03-20T09:35:15.671Z, 46.99
2023-03-20T09:36:15.691Z, 51.64
2023-03-20T09:37:15.792Z, 56.39
2023-03-20T09:38:15.800Z, 62.62
2023-03-20T09:39:15.785Z, 64.65
2023-03-20T09:40:15.790Z, 53.90
2023-03-20T09:41:15.790Z, 53.47
2023-03-20T09:42:15.781Z, 54.64
2023-03-20T09:43:15.787Z, 56.85
2023-03-20T09:44:15.789Z, 60.37
2023-03-20T09:45:15.820Z, 68.78
2023-03-20T09:46:15.833Z, 57.97
2023-03-20T09:47:20.510Z, 54.14
2023-03-20T09:48:15.880Z, 55.00
2023-03-20T09:49:15.881Z, 56.48
2023-03-20T09:50:15.880Z, 57.96
2023-03-20T09:51:15.873Z, 58.63
2023-03-20T09:52:15.882Z, 59.56
2023-03-20T09:53:15.886Z, 60.04
2023-03-20T09:54:15.888Z, 60.36
2023-03-20T09:55:15.986Z, 60.62
2023-03-20T09:56:15.883Z, 60.78
2023-03-20T09:57:15.891Z, 60.76
2023-03-20T09:58:15.888Z, 60.78
2023-03-20T09:59:16.058Z, 60.66
2023-03-20T10:00:16.067Z, 60.63
2023-03-20T10:01:16.058Z, 60.49
2023-03-20T10:02:16.206Z, 60.34
2023-03-20T10:03:16.061Z, 60.24
2023-03-20T10:04:16.081Z, 60.11
2023-03-20T10:05:16.055Z, 60.03
2023-03-20T10:06:16.060Z, 59.88
2023-03-20T10:07:16.092Z, 59.66
2023-03-20T10:08:16.285Z, 59.59
2023-03-20T10:09:16.089Z, 59.39
2023-03-20T10:10:16.255Z, 59.23
2023-03-20T10:11:16.259Z, 59.00
2023-03-20T10:12:16.231Z, 58.96
2023-03-20T10:13:16.247Z, 58.86
2023-03-20T10:14:16.817Z, 58.70
2023-03-20T10:15:16.244Z, 58.63
2023-03-20T10:16:16.313Z, 58.43
2023-03-20T10:17:16.249Z, 58.39
2023-03-20T10:18:16.246Z, 58.24
2023-03-20T10:19:16.248Z, 58.11
2023-03-20T10:20:16.249Z, 58.01
2023-03-20T10:21:16.411Z, 57.85
2023-03-20T10:22:16.426Z, 57.70
2023-03-20T10:23:16.423Z, 57.67
2023-03-20T10:24:16.420Z, 57.52
2023-03-20T10:25:16.437Z, 57.39
2023-03-20T10:26:16.423Z, 57.27
2023-03-20T10:27:16.421Z, 57.24
2023-03-20T10:28:16.432Z, 57.08
2023-03-20T10:29:16.426Z, 56.98
2023-03-20T10:30:16.425Z, 56.88
2023-03-20T10:31:16.472Z, 56.73
2023-03-20T10:32:16.436Z, 56.76
2023-03-20T10:33:16.558Z, 56.62
2023-03-20T10:34:16.434Z, 56.58
2023-03-20T10:35:16.431Z, 56.57
2023-03-20T10:36:16.457Z, 56.45
2023-03-20T10:37:17.041Z, 56.30
2023-03-20T10:38:16.618Z, 56.14
2023-03-20T10:39:16.613Z, 56.14
2023-03-20T10:40:16.607Z, 56.01
2023-03-20T10:41:16.605Z, 55.91
2023-03-20T10:42:16.614Z, 55.84
2023-03-20T10:43:16.611Z, 55.76
2023-03-20T10:44:16.604Z, 55.64
2023-03-20T10:45:16.611Z, 55.52
2023-03-20T10:46:16.629Z, 55.44
2023-03-20T10:47:16.745Z, 55.42
2023-03-20T10:48:16.613Z, 55.22
2023-03-20T10:49:16.749Z, 55.21
2023-03-20T10:50:16.754Z, 55.12
2023-03-20T10:51:16.753Z, 55.07
2023-03-20T10:52:16.748Z, 55.04
2023-03-20T10:53:16.751Z, 55.01
2023-03-20T10:54:16.753Z, 54.87
2023-03-20T10:55:16.757Z, 54.80
2023-03-20T10:56:17.219Z, 54.77
2023-03-20T10:57:16.769Z, 54.65
2023-03-20T10:58:16.758Z, 54.64
2023-03-20T10:59:16.757Z, 54.60
2023-03-20T11:00:16.781Z, 54.58
2023-03-20T11:01:16.812Z, 55.28
2023-03-20T11:02:16.819Z, 56.73
2023-03-20T11:03:16.791Z, 57.12
2023-03-20T11:04:16.874Z, 57.10
2023-03-20T11:05:16.820Z, 56.66
2023-03-20T11:06:16.817Z, 56.25
2023-03-20T11:07:16.818Z, 55.74
2023-03-20T11:08:16.822Z, 55.22
2023-03-20T11:09:16.821Z, 54.61
2023-03-20T11:10:16.845Z, 53.85
2023-03-20T11:11:16.825Z, 53.04
2023-03-20T11:12:16.826Z, 52.17
2023-03-20T11:13:16.969Z, 51.28
2023-03-20T11:14:16.847Z, 50.29
2023-03-20T11:15:16.920Z, 49.43
2023-03-20T11:16:16.978Z, 48.62
2023-03-20T11:17:17.075Z, 47.99
2023-03-20T11:18:17.068Z, 47.48
2023-03-20T11:19:17.073Z, 47.05
2023-03-20T11:20:17.120Z, 46.70
2023-03-20T11:21:17.067Z, 46.37
2023-03-20T11:22:17.097Z, 46.12
2023-03-20T11:23:17.069Z, 45.91
2023-03-20T11:24:17.238Z, 45.69
2023-03-20T11:25:17.100Z, 45.47
2023-03-20T11:26:17.125Z, 45.32
2023-03-20T11:27:17.099Z, 45.17
2023-03-20T11:28:17.109Z, 44.98
2023-03-20T11:29:17.109Z, 44.83
2023-03-20T11:30:17.116Z, 44.69
2023-03-20T11:31:17.111Z, 44.55
2023-03-20T11:32:17.323Z, 44.34
2023-03-20T11:33:17.332Z, 44.05
2023-03-20T11:34:17.268Z, 43.80
2023-03-20T11:35:17.261Z, 43.62
2023-03-20T11:36:17.260Z, 43.47
2023-03-20T11:37:17.248Z, 43.31
2023-03-20T11:38:17.279Z, 43.19
2023-03-20T11:39:17.419Z, 43.08
2023-03-20T11:40:17.347Z, 42.95
2023-03-20T11:41:17.277Z, 42.90
2023-03-20T11:42:17.280Z, 42.84
2023-03-20T11:43:17.288Z, 42.69
2023-03-20T11:44:17.597Z, 42.62
2023-03-20T11:45:17.613Z, 42.56
2023-03-20T11:46:17.637Z, 42.50
2023-03-20T11:47:17.600Z, 42.43
2023-03-20T11:48:17.607Z, 42.35
2023-03-20T11:49:17.597Z, 42.26
2023-03-20T11:50:17.600Z, 42.21
2023-03-20T11:51:17.611Z, 42.15
2023-03-20T11:52:17.609Z, 42.04
2023-03-20T11:53:17.599Z, 42.02
2023-03-20T11:54:17.605Z, 41.98
2023-03-20T11:55:17.610Z, 41.97
2023-03-20T11:56:17.606Z, 41.92
2023-03-20T11:57:17.466Z, 41.80
2023-03-20T11:58:17.618Z, 41.79
2023-03-20T11:59:17.472Z, 41.78
2023-03-20T12:00:17.473Z, 41.69
2023-03-20T12:01:17.616Z, 41.67
2023-03-20T12:02:17.647Z, 41.65
2023-03-20T12:03:17.671Z, 41.60
2023-03-20T12:04:17.618Z, 41.60
2023-03-20T12:05:17.627Z, 41.54
2023-03-20T12:06:17.625Z, 41.47
2023-03-20T12:07:17.628Z, 41.42
2023-03-20T12:08:17.790Z, 41.43
2023-03-20T12:09:17.646Z, 41.42
2023-03-20T12:10:17.658Z, 41.38
2023-03-20T12:11:17.636Z, 41.35
2023-03-20T12:12:17.664Z, 41.29
2023-03-20T12:13:17.787Z, 41.30
2023-03-20T12:14:17.801Z, 41.22
2023-03-20T12:15:17.792Z, 41.19
2023-03-20T12:16:17.844Z, 41.19
2023-03-20T12:17:17.802Z, 41.16
2023-03-20T12:18:17.798Z, 41.18
2023-03-20T12:19:17.799Z, 41.16
2023-03-20T12:20:17.794Z, 41.08
2023-03-20T12:21:17.800Z, 41.00
2023-03-20T12:22:17.806Z, 41.00
2023-03-20T12:23:17.810Z, 41.01
2023-03-20T12:24:17.801Z, 41.02
2023-03-20T12:25:17.805Z, 40.97
2023-03-20T12:26:17.806Z, 40.97
2023-03-20T12:27:17.821Z, 40.90
2023-03-20T12:28:17.977Z, 40.92